Time;durP1;ratioP1;P1;durP2;ratioP2;P2;SDS_P1;SDS_P2;PMS_P1;PMS_P2;Temp;Humidity;BMP_temperature;BMP_pressure;BME280_temperature;BME280_humidity;BME280_pressure;Samples;Min_cycle;Max_cycle;Signal;HPM_P1;HPM_P2
2023/01/26 00:00:15;;;;;;;33.80;20.70;;;1.60;99.90;;;1.49;72.84;101182.56;5038622;28;20221;-72
2023/01/26 00:02:43;;;;;;;32.80;19.63;;;1.60;99.90;;;1.49;73.57;101172.41;5041268;28;20281;-72
2023/01/26 00:05:12;;;;;;;33.40;21.27;;;1.60;99.90;;;1.50;72.36;101170.75;5040331;28;20252;-71
2023/01/26 00:07:44;;;;;;;34.30;21.97;;;1.60;99.90;;;1.47;72.78;101166.38;5029651;28;20203;-71
2023/01/26 00:10:13;;;;;;;32.70;20.90;;;1.60;99.90;;;1.49;73.08;101172.41;5034332;28;20643;-72
2023/01/26 00:12:43;;;;;;;34.23;21.43;;;1.60;99.90;;;1.52;72.73;101175.09;5036554;28;20237;-72
2023/01/26 00:15:12;;;;;;;35.90;20.20;;;1.60;99.90;;;1.52;73.02;101169.16;5046922;28;20226;-71
2023/01/26 00:17:40;;;;;;;35.73;22.07;;;1.60;99.90;;;1.54;73.01;101168.38;5042392;28;20252;-71
2023/01/26 00:20:11;;;;;;;36.70;21.20;;;1.60;99.90;;;1.54;72.64;101157.38;5051748;28;20213;-71
2023/01/26 00:22:40;;;;;;;34.63;21.00;;;1.70;99.90;;;1.57;73.38;101165.13;5050986;28;20202;-71
2023/01/26 00:25:10;;;;;;;33.00;21.20;;;1.70;99.90;;;1.58;72.94;101164.31;5049137;28;20256;-69
2023/01/26 00:27:39;;;;;;;35.27;20.77;;;1.70;99.90;;;1.58;73.26;101151.59;5040459;28;20267;-71
2023/01/26 00:30:10;;;;;;;36.63;20.93;;;1.70;99.90;;;1.57;72.68;101149.88;5037952;28;20214;-70
2023/01/26 00:32:39;;;;;;;38.03;21.23;;;1.70;99.90;;;1.58;73.16;101160.09;5048143;28;20220;-71
2023/01/26 00:35:09;;;;;;;32.23;19.73;;;1.70;99.90;;;1.57;72.66;101160.03;5040650;28;20221;-71
2023/01/26 00:37:41;;;;;;;33.27;19.90;;;1.70;99.90;;;1.56;73.16;101155.78;5039896;28;20241;-71
2023/01/26 00:40:11;;;;;;;34.93;20.70;;;1.70;99.90;;;1.55;72.13;101156.59;5039960;28;20209;-72
2023/01/26 00:42:40;;;;;;;36.83;21.70;;;1.70;99.90;;;1.57;72.95;101154.97;5040811;28;20447;-70
2023/01/26 00:45:10;;;;;;;36.97;21.47;;;1.80;99.90;;;1.57;72.64;101150.75;5044855;28;20206;-71
2023/01/26 00:47:39;;;;;;;34.47;20.97;;;1.70;99.90;;;1.60;72.91;101155.09;5043567;28;20203;-72
2023/01/26 00:50:09;;;;;;;35.43;20.80;;;1.70;99.90;;;1.63;72.90;101150.16;5035411;28;20228;-71
2023/01/26 00:52:39;;;;;;;32.97;20.63;;;1.70;99.90;;;1.61;72.52;101151.75;5036130;28;20251;-71
2023/01/26 00:55:08;;;;;;;34.80;21.87;;;1.70;99.90;;;1.60;72.37;101145.81;5044540;28;20226;-72
2023/01/26 00:57:36;;;;;;;32.53;18.90;;;1.60;99.90;;;1.59;72.25;101140.66;5039343;28;20608;-71
2023/01/26 01:00:08;;;;;;;33.53;20.90;;;1.70;99.90;;;1.59;72.91;101149.16;5052330;28;20238;-71
2023/01/26 01:02:38;;;;;;;30.83;20.50;;;1.70;99.90;;;1.59;72.29;101154.22;5050442;28;20202;-70
2023/01/26 01:05:07;;;;;;;31.70;20.20;;;1.70;99.90;;;1.58;72.87;101149.06;5046612;28;20214;-71
2023/01/26 01:07:38;;;;;;;33.77;20.70;;;1.70;99.90;;;1.59;72.56;101154.22;5046105;28;20264;-72
2023/01/26 01:10:08;;;;;;;34.73;21.03;;;1.70;99.90;;;1.59;72.92;101145.75;5041048;28;20208;-72
2023/01/26 01:12:37;;;;;;;35.50;21.60;;;1.70;99.90;;;1.60;72.31;101144.94;5049518;28;20772;-70
2023/01/26 01:15:08;;;;;;;34.93;20.33;;;1.70;99.90;;;1.62;72.21;101151.81;5048042;28;20242;-70
2023/01/26 01:17:38;;;;;;;30.63;19.93;;;1.70;99.90;;;1.62;72.47;101153.47;5049086;28;20621;-73
2023/01/26 01:20:09;;;;;;;30.73;20.20;;;1.70;99.90;;;1.61;72.10;101142.44;5036244;28;20326;-71
2023/01/26 01:22:39;;;;;;;37.03;21.33;;;1.70;99.90;;;1.59;72.35;101133.06;5050791;28;20340;-71
2023/01/26 01:25:08;;;;;;;34.53;21.13;;;1.70;99.90;;;1.59;72.54;101122.88;5034077;28;20656;-71
2023/01/26 01:27:37;;;;;;;34.40;20.70;;;1.70;99.90;;;1.53;73.14;101109.91;5039610;28;20210;-71
2023/01/26 01:30:07;;;;;;;32.90;20.87;;;1.70;99.90;;;1.54;73.00;101106.56;5034915;28;20210;-72
2023/01/26 01:32:38;;;;;;;37.97;21.87;;;1.70;99.90;;;1.54;72.63;101104.88;5047589;28;20202;-72
2023/01/26 01:35:08;;;;;;;31.87;21.03;;;1.70;99.90;;;1.53;72.28;101102.31;5039179;28;20226;-72
2023/01/26 01:37:36;;;;;;;39.30;22.30;;;1.60;99.90;;;1.52;73.26;101103.97;5052300;28;20562;-72
2023/01/26 01:40:06;;;;;;;37.43;22.97;;;1.60;99.90;;;1.53;72.48;101107.38;5034371;28;20700;-73
2023/01/26 01:42:35;;;;;;;40.20;23.10;;;1.60;99.90;;;1.53;72.66;101094.69;5048904;28;20679;-71
2023/01/26 01:45:41;;;;;;;37.97;22.37;;;1.60;99.90;;;1.53;73.13;101093.00;5041313;28;20233;-72
2023/01/26 01:48:24;;;;;;;36.53;22.23;;;1.70;99.90;;;1.53;72.64;101079.44;4978007;28;20279;-72
2023/01/26 01:50:57;;;;;;;34.97;21.87;;;1.60;99.90;;;1.56;72.66;101082.13;4982505;28;20770;-73
2023/01/26 01:53:33;;;;;;;36.93;20.97;;;1.70;99.90;;;1.58;72.48;101067.78;5008380;28;20221;-72
2023/01/26 01:56:05;;;;;;;34.10;21.37;;;1.60;99.90;;;1.55;72.73;101075.31;5046845;28;20217;-72
2023/01/26 01:58:40;;;;;;;37.73;22.20;;;1.60;99.90;;;1.52;73.09;101070.97;5049761;28;20296;-71
2023/01/26 02:01:09;;;;;;;36.77;21.30;;;1.70;99.90;;;1.51;73.04;101070.88;5048358;28;20267;-72
2023/01/26 02:03:41;;;;;;;36.43;21.83;;;1.60;99.90;;;1.53;72.85;101067.59;5049350;28;20209;-71
2023/01/26 02:06:15;;;;;;;35.97;21.37;;;1.60;99.90;;;1.54;72.90;101073.56;5045179;28;20206;-73
2023/01/26 02:08:47;;;;;;;36.40;21.60;;;1.70;99.90;;;1.53;72.93;101065.06;5049678;28;20271;-72
2023/01/26 02:11:20;;;;;;;36.43;21.33;;;1.60;99.90;;;1.54;73.18;101064.25;5031232;28;20234;-71
2023/01/26 02:13:50;;;;;;;35.40;20.30;;;1.60;99.90;;;1.52;72.74;101067.56;5032703;28;20269;-71
2023/01/26 02:16:20;;;;;;;34.40;21.87;;;1.60;99.90;;;1.48;73.20;101058.94;5047858;28;20275;-71
2023/01/26 02:18:50;;;;;;;34.03;22.10;;;1.60;99.90;;;1.45;72.81;101064.75;5044212;28;20654;-70
2023/01/26 02:21:21;;;;;;;34.10;21.03;;;1.60;99.90;;;1.45;73.87;101059.66;5038636;28;20199;-71
2023/01/26 02:24:14;;;;;;;36.93;22.97;;;1.60;99.90;;;1.40;73.48;101053.53;5040697;28;20206;-70
2023/01/26 02:26:44;;;;;;;33.37;21.40;;;1.60;99.90;;;1.43;73.87;101056.19;5048012;28;20272;-72
2023/01/26 02:29:13;;;;;;;37.47;22.40;;;1.60;99.90;;;1.45;73.89;101048.66;5038823;28;20226;-71
2023/01/26 02:31:42;;;;;;;36.17;23.13;;;1.60;99.90;;;1.44;73.98;101052.00;5047514;28;20264;-70
2023/01/26 02:34:11;;;;;;;38.20;22.93;;;1.60;99.90;;;1.48;73.94;101050.47;5032581;28;20297;-71
2023/01/26 02:36:39;;;;;;;39.47;23.30;;;1.60;99.90;;;1.50;73.75;101038.69;5039441;28;20230;-72
2023/01/26 02:39:23;;;;;;;36.67;22.30;;;1.60;99.90;;;1.51;73.78;101041.28;5040701;28;20233;-71
2023/01/26 02:44:43;;;;;;;40.30;22.40;;;1.70;99.90;;;1.58;73.57;101045.78;5042526;28;20217;-72
2023/01/26 02:47:14;;;;;;;40.10;23.93;;;1.70;99.90;;;1.58;74.26;101037.31;5043541;28;20202;-70
2023/01/26 02:49:49;;;;;;;37.53;22.17;;;1.70;99.90;;;1.62;74.13;101041.69;5035459;28;20245;-71
2023/01/26 02:52:21;;;;;;;40.23;23.00;;;1.70;99.90;;;1.62;73.23;101031.53;5046216;28;20226;-71
2023/01/26 02:57:37;;;;;;;35.77;21.83;;;1.70;99.90;;;1.67;73.49;101030.06;5042750;28;20652;-71
2023/01/26 03:00:11;;;;;;;37.90;23.47;;;1.80;99.90;;;1.67;73.36;101025.84;5042172;28;20221;-71
2023/01/26 03:02:41;;;;;;;37.00;22.30;;;1.80;99.90;;;1.67;73.53;101019.91;5034514;28;20220;-72
2023/01/26 03:05:10;;;;;;;38.47;22.60;;;1.80;99.90;;;1.67;73.82;101004.69;5034317;28;20203;-71
2023/01/26 03:07:39;;;;;;;34.00;22.47;;;1.80;99.90;;;1.66;74.35;101002.94;5030871;28;20210;-70
2023/01/26 03:10:10;;;;;;;41.33;23.27;;;1.80;99.90;;;1.64;73.94;100996.94;5041309;28;20213;-71
2023/01/26 03:12:40;;;;;;;38.10;22.70;;;1.80;99.90;;;1.68;74.23;100998.78;5034905;28;20230;-71
2023/01/26 03:27:25;;;;;;;38.73;22.43;;;1.80;99.90;;;1.68;73.49;101006.41;5047667;28;20201;-70
2023/01/26 03:29:27;;;;;;;37.97;21.27;;;1.80;99.90;;;1.64;73.50;100976.59;5042201;28;20218;-70
2023/01/26 03:31:58;;;;;;;36.93;22.43;;;1.70;99.90;;;1.62;73.57;100976.56;5048817;28;20248;-70
2023/01/26 03:34:28;;;;;;;39.43;21.97;;;1.70;99.90;;;1.61;nan;100971.41;5048833;28;20209;-69
2023/01/26 03:36:57;;;;;;;38.87;23.30;;;1.70;99.90;;;1.59;73.36;100973.03;5043134;28;20257;-70
2023/01/26 03:56:20;;;;;;;36.40;20.93;;;1.60;99.90;;;1.52;74.05;100959.22;5041361;28;20643;-70
2023/01/26 03:58:53;;;;;;;36.17;19.40;;;1.70;99.90;;;1.52;73.61;100958.34;5045750;28;20658;-71
2023/01/26 04:01:26;;;;;;;35.30;20.97;;;1.60;99.90;;;1.51;73.69;100957.50;5049070;28;20710;-71
2023/01/26 04:09:32;;;;;;;36.27;21.07;;;1.60;99.90;;;1.50;74.23;100954.88;5048776;28;20198;-69
2023/01/26 04:12:01;;;;;;;36.67;20.77;;;1.60;99.90;;;1.49;73.76;100945.53;5053182;28;20661;-71
2023/01/26 04:22:53;;;;;;;38.10;20.37;;;1.60;99.90;;;1.52;74.36;100953.28;5051683;28;20206;-71
2023/01/26 04:25:22;;;;;;;42.70;22.07;;;1.60;99.90;;;1.51;73.45;100947.34;5039161;28;20257;-71
2023/01/26 04:27:51;;;;;;;37.93;21.70;;;1.60;99.90;;;1.52;74.17;100943.13;5045324;28;20205;-70
2023/01/26 04:30:20;;;;;;;39.00;22.63;;;1.70;99.90;;;1.56;74.18;100950.03;5037126;28;20206;-72
2023/01/26 04:32:52;;;;;;;41.50;23.00;;;1.60;99.90;;;1.57;73.53;100949.22;5038223;28;20210;-70
2023/01/26 04:35:21;;;;;;;40.90;22.97;;;1.70;99.90;;;1.59;74.46;100950.16;5044752;28;20215;-71
2023/01/26 04:37:49;;;;;;;40.63;23.40;;;1.70;99.90;;;1.60;73.75;100947.69;5039621;28;20207;-69
2023/01/26 04:40:19;;;;;;;35.13;20.97;;;1.80;99.90;;;1.63;74.12;100949.47;5032390;28;20202;-72
2023/01/26 04:42:48;;;;;;;37.73;21.13;;;1.80;99.90;;;1.61;73.43;100951.06;5042065;28;20248;-71
2023/01/26 04:45:16;;;;;;;38.73;21.73;;;1.80;99.90;;;1.64;73.83;100953.75;5049204;28;20206;-71
2023/01/26 04:47:45;;;;;;;41.40;22.23;;;1.70;99.90;;;1.61;73.41;100954.47;5046385;28;20228;-71
2023/01/26 04:50:15;;;;;;;41.77;23.97;;;1.70;99.90;;;1.65;73.47;100956.31;5048539;28;20662;-71
2023/01/26 04:52:44;;;;;;;40.23;22.33;;;1.80;99.90;;;1.69;73.30;100955.66;5041784;28;20213;-71
2023/01/26 04:55:12;;;;;;;42.53;21.57;;;1.80;99.90;;;1.72;73.80;100942.19;5049629;28;20224;-71
2023/01/26 04:57:41;;;;;;;34.87;20.57;;;1.80;99.90;;;1.74;73.10;100948.22;5032539;28;20285;-71
2023/01/26 05:00:12;;;;;;;36.07;19.93;;;1.80;99.90;;;1.74;72.73;100942.28;5040458;28;20222;-71
2023/01/26 05:02:41;;;;;;;37.23;19.97;;;1.80;99.90;;;1.78;73.45;100946.66;5047736;28;20251;-70
2023/01/26 05:05:10;;;;;;;36.73;20.63;;;1.80;99.90;;;1.79;73.17;100939.09;5043670;28;20210;-70
2023/01/26 05:07:40;;;;;;;37.37;21.40;;;1.90;99.90;;;1.83;73.11;100940.94;5040617;28;20210;-70
2023/01/26 05:10:10;;;;;;;41.73;22.70;;;1.90;99.90;;;1.84;73.33;100937.59;5044630;28;20279;-71
2023/01/26 05:12:42;;;;;;;39.50;22.00;;;1.90;99.90;;;1.86;73.35;100935.97;5041923;28;20317;-71
2023/01/26 05:15:11;;;;;;;36.60;20.63;;;1.90;99.90;;;1.86;73.22;100941.06;5037729;28;20264;-72
2023/01/26 05:17:40;;;;;;;38.70;19.33;;;1.90;99.90;;;1.88;72.58;100939.44;5050301;28;20233;-71
2023/01/26 05:20:10;;;;;;;32.83;18.77;;;2.00;99.90;;;1.87;73.36;100939.38;5036667;28;20202;-70
2023/01/26 05:22:41;;;;;;;28.83;17.60;;;2.00;99.90;;;1.85;72.98;100934.25;5043267;28;20217;-71
2023/01/26 05:25:10;;;;;;;36.27;19.13;;;1.90;99.90;;;1.85;72.98;100929.16;5040390;28;20751;-71
2023/01/26 05:27:39;;;;;;;31.73;19.83;;;1.90;99.90;;;1.86;72.45;100935.09;5048809;28;20271;-70
2023/01/26 05:30:09;;;;;;;36.67;20.50;;;1.90;99.90;;;1.85;73.03;100934.25;5048791;28;20574;-70
2023/01/26 05:32:41;;;;;;;33.50;18.80;;;1.90;99.90;;;1.85;73.24;100934.25;5050895;28;20209;-71
2023/01/26 05:35:10;;;;;;;28.87;16.53;;;2.00;99.90;;;1.86;72.87;100930.03;5036376;28;20206;-70
2023/01/26 05:37:42;;;;;;;25.73;15.43;;;2.00;99.90;;;1.85;72.97;100930.84;5049048;28;20275;-71
2023/01/26 05:40:12;;;;;;;28.90;16.50;;;1.90;99.90;;;1.84;73.12;100940.16;5047810;28;20202;-70
2023/01/26 05:42:43;;;;;;;25.60;15.47;;;2.00;99.90;;;1.83;73.16;100933.31;5051651;28;20686;-68
2023/01/26 05:45:11;;;;;;;27.57;15.93;;;1.90;99.90;;;1.83;72.96;100930.78;5053306;28;20199;-66
2023/01/26 05:47:41;;;;;;;30.80;17.53;;;1.90;99.90;;;1.83;72.49;100943.47;5050499;28;20654;-65
2023/01/26 05:50:11;;;;;;;28.80;16.50;;;1.90;99.90;;;1.80;73.46;100929.78;5047024;28;20202;-67
2023/01/26 05:52:42;;;;;;;31.63;17.43;;;1.90;99.90;;;1.79;73.07;100931.47;5048762;28;20211;-69
2023/01/26 05:55:11;;;;;;;25.53;15.63;;;1.90;99.90;;;1.81;72.65;100946.78;5055204;28;20201;-69
2023/01/26 05:57:39;;;;;;;27.63;15.77;;;1.90;99.90;;;1.77;73.12;100938.19;5053835;28;20218;-67
2023/01/26 06:00:11;;;;;;;29.40;17.30;;;1.90;99.90;;;1.81;73.29;100934.09;5053605;28;20229;-68
2023/01/26 06:02:40;;;;;;;30.53;18.33;;;1.90;99.90;;;1.81;73.27;100945.09;5052887;28;20651;-65
2023/01/26 06:05:10;;;;;;;29.17;17.17;;;1.90;99.90;;;1.81;73.63;100937.47;5041399;28;20202;-69
2023/01/26 06:07:38;;;;;;;31.60;17.90;;;1.90;99.90;;;1.84;73.15;100942.69;5055856;28;20209;-65
2023/01/26 06:10:10;;;;;;;26.13;16.93;;;1.90;99.90;;;1.84;73.52;100937.59;5055100;28;20272;-67
2023/01/26 06:12:41;;;;;;;30.73;18.00;;;1.90;99.90;;;1.82;72.93;100939.22;5048855;28;20246;-72
2023/01/26 06:15:12;;;;;;;33.80;19.20;;;1.90;99.90;;;1.82;73.11;100943.44;5055267;28;20213;-67
2023/01/26 06:17:40;;;;;;;34.40;18.90;;;1.90;99.90;;;1.81;72.25;100942.56;5048710;28;20218;-66
2023/01/26 06:20:13;;;;;;;35.47;20.10;;;1.90;99.90;;;1.78;72.70;100942.44;5049323;28;20746;-66
2023/01/26 06:22:42;;;;;;;35.83;19.97;;;1.90;99.90;;;1.76;72.22;100941.50;5053894;28;20283;-67
2023/01/26 06:25:12;;;;;;;35.90;21.57;;;1.90;99.90;;;1.74;72.82;100935.53;5057387;28;20232;-68
2023/01/26 06:27:41;;;;;;;41.27;22.57;;;1.90;99.90;;;1.72;72.35;100932.03;5055181;28;20205;-69
2023/01/26 06:30:11;;;;;;;40.77;22.77;;;1.90;99.90;;;1.73;72.97;100941.41;5057193;28;20264;-68
2023/01/26 06:32:40;;;;;;;44.43;25.00;;;1.80;99.90;;;1.71;73.78;100935.41;5058121;28;20228;-67
2023/01/26 06:35:09;;;;;;;44.73;25.83;;;1.80;99.90;;;1.72;73.92;100933.72;5045518;28;20222;-66
2023/01/26 06:37:38;;;;;;;44.93;24.57;;;1.80;99.90;;;1.68;74.07;100935.28;5049147;28;20231;-69
2023/01/26 06:40:09;;;;;;;45.70;23.97;;;1.80;99.90;;;1.69;74.14;100934.44;5048127;28;20287;-66
2023/01/26 06:42:39;;;;;;;43.70;23.93;;;1.90;99.90;;;1.68;74.08;100930.19;5055075;28;20210;-67
2023/01/26 06:45:10;;;;;;;44.77;24.43;;;1.80;99.90;;;1.68;73.96;100925.97;5054607;28;20225;-67
2023/01/26 06:47:44;;;;;;;44.47;25.00;;;1.80;99.90;;;1.69;73.64;100929.38;5048525;28;20213;-66
2023/01/26 06:50:14;;;;;;;43.57;24.20;;;1.80;99.90;;;1.65;73.74;100927.53;5053809;28;20233;-68
2023/01/26 06:52:45;;;;;;;46.37;25.30;;;1.80;99.90;;;1.65;74.64;100914.81;5047808;28;20257;-67
2023/01/26 06:55:20;;;;;;;42.67;24.37;;;1.80;99.90;;;1.66;73.92;100921.66;5052504;28;20210;-68
2023/01/26 06:57:50;;;;;;;45.57;24.07;;;1.80;99.90;;;1.71;73.69;100925.22;5039841;28;20209;-70
2023/01/26 07:00:21;;;;;;;42.57;24.03;;;1.80;99.90;;;1.68;73.60;100914.94;5049010;28;20233;-67
2023/01/26 07:02:52;;;;;;;40.40;23.17;;;1.80;99.90;;;1.67;74.19;100918.31;5047829;28;20206;-64
2023/01/26 07:05:21;;;;;;;36.60;21.47;;;1.80;99.90;;;1.63;73.68;100916.47;5045144;28;20272;-67
2023/01/26 07:07:49;;;;;;;39.17;22.33;;;1.80;99.90;;;1.64;73.82;100918.19;5045225;28;20260;-66
2023/01/26 07:10:18;;;;;;;35.00;19.70;;;1.80;99.90;;;1.65;73.82;100924.97;5044414;28;20213;-70
2023/01/26 07:12:47;;;;;;;39.13;20.07;;;1.90;99.90;;;1.63;73.89;100911.38;5042771;28;20233;-65
2023/01/26 07:15:17;;;;;;;35.20;20.27;;;1.80;99.90;;;1.65;73.88;100919.91;5041198;28;20213;-68
2023/01/26 07:17:45;;;;;;;32.70;19.53;;;1.80;99.90;;;1.67;73.97;100920.84;5037677;28;20230;-72
2023/01/26 07:20:14;;;;;;;32.50;18.73;;;1.80;99.90;;;1.68;72.97;100918.34;5043107;28;20744;-68
2023/01/26 07:22:43;;;;;;;36.90;19.40;;;1.80;99.90;;;1.66;73.65;100912.38;5043899;28;20214;-69
2023/01/26 07:25:11;;;;;;;35.10;19.60;;;1.80;99.90;;;1.65;73.56;100910.59;5042809;28;20536;-67
2023/01/26 07:27:41;;;;;;;32.57;19.73;;;1.80;99.90;;;1.63;73.56;100917.31;5041934;28;20214;-69
2023/01/26 07:30:13;;;;;;;32.97;19.70;;;1.80;99.90;;;1.61;73.22;100900.28;5035990;28;20275;-67
2023/01/26 07:32:43;;;;;;;33.00;19.27;;;1.80;99.90;;;1.59;73.64;100907.00;5048064;28;20659;-66
2023/01/26 07:35:11;;;;;;;38.30;20.67;;;1.70;99.90;;;1.57;72.97;100909.44;5034556;28;20198;-68
2023/01/26 07:37:42;;;;;;;32.17;18.53;;;1.80;99.90;;;1.55;73.90;100893.31;5048522;28;20729;-67
2023/01/26 07:40:12;;;;;;;32.33;18.43;;;1.80;99.90;;;1.58;73.91;100901.00;5043879;28;20670;-66
2023/01/26 07:42:41;;;;;;;34.27;19.97;;;1.80;99.90;;;1.58;73.53;100895.06;5048560;28;20202;-69
2023/01/26 07:45:10;;;;;;;30.13;18.93;;;1.80;99.90;;;1.58;74.04;100897.63;5049323;28;20214;-67
2023/01/26 07:47:39;;;;;;;34.67;19.00;;;1.80;99.90;;;1.62;74.20;100897.81;5039890;28;20237;-69
2023/01/26 07:50:12;;;;;;;32.33;18.97;;;1.80;99.90;;;1.66;73.16;100898.78;5038324;28;20210;-68
2023/01/26 07:52:42;;;;;;;32.20;18.50;;;1.80;99.90;;;1.69;74.02;100897.25;5044493;28;20256;-67
2023/01/26 07:55:12;;;;;;;28.40;16.90;;;1.80;99.90;;;1.71;73.65;100899.81;5046845;28;20206;-70
2023/01/26 07:57:41;;;;;;;32.77;18.40;;;1.90;99.90;;;1.72;73.61;100904.09;5045192;28;20612;-69
2023/01/26 08:00:11;;;;;;;32.23;17.47;;;1.90;99.90;;;1.73;73.58;100903.31;5040486;28;20291;-68
2023/01/26 08:02:40;;;;;;;28.03;17.77;;;1.90;99.90;;;1.72;72.84;100901.56;5047790;28;20789;-70
2023/01/26 08:05:11;;;;;;;30.77;18.70;;;1.90;99.90;;;1.74;73.49;100896.53;5044775;28;20557;-69
2023/01/26 08:07:39;;;;;;;28.17;17.90;;;1.90;99.90;;;1.79;72.98;100905.19;5046516;28;20305;-69
2023/01/26 08:10:11;;;;;;;31.93;18.00;;;1.90;99.90;;;1.80;72.82;100900.16;5048655;28;20706;-70
2023/01/26 08:12:40;;;;;;;27.70;15.63;;;2.00;99.90;;;1.81;72.52;100901.91;5047038;28;20349;-71
2023/01/26 08:15:10;;;;;;;26.53;15.90;;;2.00;99.90;;;1.82;72.57;100895.16;5049086;28;20220;-70
2023/01/26 08:17:39;;;;;;;25.33;15.83;;;2.00;99.90;;;1.85;72.71;100898.69;5044770;28;20214;-70
2023/01/26 08:20:12;;;;;;;27.43;16.03;;;2.00;99.90;;;1.88;72.13;100897.94;5048389;28;20260;-71
2023/01/26 08:22:41;;;;;;;25.60;15.53;;;2.00;99.90;;;1.91;71.76;100893.84;5037831;28;20671;-70
2023/01/26 08:25:10;;;;;;;28.53;15.90;;;2.10;99.90;;;1.97;71.96;100894.84;5031663;28;20210;-73
2023/01/26 08:27:39;;;;;;;23.33;14.80;;;2.10;99.90;;;1.98;70.98;100896.56;5033188;28;20221;-71
2023/01/26 08:30:10;;;;;;;22.20;13.50;;;2.10;99.90;;;1.97;70.51;100885.56;5041140;28;20234;-72
2023/01/26 08:32:39;;;;;;;21.03;13.30;;;2.10;99.90;;;1.97;70.28;100882.16;5047294;28;20206;-70
2023/01/26 08:35:10;;;;;;;21.77;12.93;;;2.20;99.90;;;1.95;70.15;100879.53;5035346;28;20229;-73
2023/01/26 08:37:38;;;;;;;21.13;12.20;;;2.20;99.90;;;1.97;69.11;100887.22;5033744;28;20202;-73
2023/01/26 08:40:09;;;;;;;21.53;12.57;;;2.10;99.90;;;2.00;69.47;100888.22;5049680;28;20260;-71
2023/01/26 08:42:38;;;;;;;18.47;12.30;;;2.10;99.90;;;2.02;68.60;100895.88;5043509;28;20663;-71
2023/01/26 08:45:08;;;;;;;18.17;11.83;;;2.10;99.90;;;2.00;69.43;100892.44;5049865;28;20643;-73
2023/01/26 08:47:37;;;;;;;21.30;11.90;;;2.10;99.90;;;1.97;68.45;100895.72;5046826;28;20198;-70
2023/01/26 08:50:07;;;;;;;23.27;12.83;;;2.10;99.90;;;1.96;68.94;100895.69;5046682;28;20220;-70
2023/01/26 08:52:37;;;;;;;23.07;13.30;;;2.10;99.90;;;1.94;68.88;100887.97;5032806;28;20701;-69
2023/01/26 08:55:07;;;;;;;20.97;12.67;;;2.10;99.90;;;1.93;69.05;100901.50;5034207;28;20584;-70
2023/01/26 08:57:35;;;;;;;19.27;11.77;;;2.10;99.90;;;1.89;68.44;100895.44;5037192;28;20324;-71
2023/01/26 09:00:06;;;;;;;18.33;12.27;;;2.10;99.90;;;1.89;68.38;100899.66;5043451;28;20240;-70
2023/01/26 09:02:34;;;;;;;20.97;12.73;;;2.10;99.90;;;1.90;68.37;100907.31;5038186;28;20220;-70
2023/01/26 09:05:03;;;;;;;22.30;13.30;;;2.10;99.90;;;1.93;69.24;100909.97;5053370;28;20216;-70
2023/01/26 09:07:31;;;;;;;20.60;12.10;;;2.10;99.90;;;1.98;68.75;100916.91;5045902;28;20636;-69
2023/01/26 09:10:02;;;;;;;20.40;11.27;;;2.10;99.90;;;2.02;68.99;100916.22;5037194;28;20207;-69
2023/01/26 09:12:30;;;;;;;22.93;12.87;;;2.20;99.90;;;2.04;68.73;100920.56;5044350;28;20242;-71
2023/01/26 09:14:58;;;;;;;20.37;11.27;;;2.20;99.90;;;2.06;68.25;100916.41;5040606;28;20210;-68
2023/01/26 09:17:27;;;;;;;16.60;11.73;;;2.30;99.90;;;2.04;67.43;100915.47;5041268;28;20263;-69
2023/01/26 09:19:56;;;;;;;18.13;11.07;;;2.20;99.90;;;2.08;68.15;100921.53;5047070;28;20577;-68
2023/01/26 09:22:24;;;;;;;15.77;10.67;;;2.30;99.90;;;2.07;66.94;100915.59;5044751;28;20206;-70
2023/01/26 09:24:55;;;;;;;17.17;10.53;;;2.20;99.90;;;2.08;67.07;100917.31;5032241;28;20214;-71
2023/01/26 09:27:25;;;;;;;16.37;9.80;;;2.20;99.90;;;2.08;67.09;100921.53;5041534;28;20651;-70
2023/01/26 09:29:54;;;;;;;16.00;10.23;;;2.20;99.90;;;2.08;66.72;100917.31;5034763;28;20199;-69
2023/01/26 09:32:23;;;;;;;15.53;9.83;;;2.20;99.90;;;2.06;66.39;100911.31;5042056;28;20266;-71
2023/01/26 09:34:52;;;;;;;15.73;11.00;;;2.20;99.90;;;2.02;66.90;100908.59;5040718;28;20251;-68
2023/01/26 09:37:20;;;;;;;14.97;10.10;;;2.10;99.90;;;1.97;66.73;100902.47;5031528;28;20210;-68
2023/01/26 09:39:49;;;;;;;16.17;9.47;;;2.10;99.90;;;1.98;67.20;100909.28;5033444;28;20272;-69
2023/01/26 09:42:46;;;;;;;18.57;10.77;;;2.10;99.90;;;1.97;66.05;100902.47;5031975;28;20746;-69
2023/01/26 09:45:26;;;;;;;21.03;11.13;;;2.10;99.90;;;1.93;66.58;100902.34;5035933;28;20577;-70
2023/01/26 09:48:22;;;;;;;16.43;10.50;;;2.10;99.90;;;1.94;67.16;100904.09;5032125;28;20206;-69
2023/01/26 09:51:00;;;;;;;20.23;10.40;;;2.10;99.90;;;1.91;66.80;100896.38;5038054;28;20202;-70
2023/01/26 09:53:42;;;;;;;13.83;9.67;;;2.10;99.90;;;1.91;66.49;100903.09;5034543;28;20620;-71
2023/01/26 09:56:17;;;;;;;15.93;9.93;;;2.10;99.90;;;1.87;67.00;100891.09;5031470;28;20202;-70
2023/01/26 09:58:54;;;;;;;16.40;10.93;;;2.00;99.90;;;1.86;67.38;100890.22;5043100;28;20366;-69
2023/01/26 10:01:35;;;;;;;15.80;10.90;;;2.00;99.90;;;1.85;66.44;100885.97;5040788;28;20249;-69
2023/01/26 10:04:14;;;;;;;12.60;9.03;;;2.00;99.90;;;1.86;66.65;100885.16;5033656;28;20690;-72
2023/01/26 10:06:44;;;;;;;15.97;10.13;;;2.10;99.90;;;1.89;66.48;100884.41;5033741;28;20205;-71
2023/01/26 10:09:22;;;;;;;14.77;9.80;;;2.10;99.90;;;1.90;66.85;100876.81;5031188;28;20570;-68
2023/01/26 10:11:56;;;;;;;14.97;9.80;;;2.10;99.90;;;1.93;67.33;100882.03;5043565;28;20249;-70
2023/01/26 10:14:36;;;;;;;15.43;10.30;;;2.10;99.90;;;1.95;66.30;100877.00;5044229;28;20296;-70
2023/01/26 10:17:08;;;;;;;16.37;10.37;;;2.10;99.90;;;1.96;66.38;100872.81;5038216;28;20595;-70
2023/01/26 10:19:42;;;;;;;16.43;10.27;;;2.10;99.90;;;1.97;66.47;100871.97;5049099;28;20221;-70
2023/01/26 10:22:19;;;;;;;14.63;9.83;;;2.10;99.90;;;2.02;66.80;100870.47;5050315;28;20239;-68
2023/01/26 10:24:51;;;;;;;12.73;10.07;;;2.20;99.90;;;2.04;66.36;100856.16;5031585;28;20213;-70
2023/01/26 10:27:20;;;;;;;14.40;10.43;;;2.20;99.90;;;2.07;66.33;100856.25;5042718;28;20210;-71
2023/01/26 10:29:50;;;;;;;13.97;9.43;;;2.30;99.90;;;2.08;65.60;100851.22;5036345;28;20647;-69
2023/01/26 10:32:19;;;;;;;14.30;10.33;;;2.20;99.90;;;2.08;66.66;100847.81;5039600;28;20206;-69
2023/01/26 10:34:52;;;;;;;16.00;9.77;;;2.20;99.90;;;2.08;65.94;100840.19;5037089;28;20214;-69
2023/01/26 10:37:22;;;;;;;12.73;9.30;;;2.20;99.90;;;2.05;66.26;100838.41;5031060;28;20654;-70
2023/01/26 10:40:00;;;;;;;15.07;10.40;;;2.30;99.90;;;2.06;66.53;100844.34;5038813;28;20512;-71
2023/01/26 10:42:34;;;;;;;14.47;9.73;;;2.30;99.90;;;2.07;66.56;100836.78;5044845;28;20213;-70
2023/01/26 10:45:07;;;;;;;16.10;8.60;;;2.30;99.90;;;2.10;66.26;100833.47;5036663;28;20255;-69
2023/01/26 10:47:35;;;;;;;15.03;9.57;;;2.30;99.90;;;2.11;66.25;100832.69;5041692;28;20210;-71
2023/01/26 10:50:24;;;;;;;12.20;8.93;;;2.30;99.90;;;2.08;65.52;100835.97;5035639;28;21663;-68
2023/01/26 10:53:00;;;;;;;14.70;9.03;;;2.30;99.90;;;2.04;65.25;100834.13;5040756;28;20210;-71
2023/01/26 10:55:30;;;;;;;12.33;9.20;;;2.20;99.90;;;2.00;64.93;100828.88;5038484;28;20198;-70
2023/01/26 10:58:00;;;;;;;12.17;9.23;;;2.20;99.90;;;1.94;66.05;100822.75;5033324;28;20202;-71
2023/01/26 11:00:32;;;;;;;12.30;8.70;;;2.20;99.90;;;1.91;65.81;100820.13;5032528;28;20309;-70
2023/01/26 11:03:18;;;;;;;12.60;9.33;;;2.10;99.90;;;1.89;65.89;100810.72;5043589;28;20662;-70
2023/01/26 11:06:04;;;;;;;13.67;8.80;;;2.10;99.90;;;1.86;66.21;100797.91;5046937;28;20197;-69
2023/01/26 11:08:35;;;;;;;12.57;8.63;;;2.10;99.90;;;1.82;65.86;100801.16;5040553;28;20197;-69
2023/01/26 11:11:06;;;;;;;10.50;8.23;;;2.10;99.90;;;1.80;66.35;100798.53;5034679;28;20245;-69
2023/01/26 11:13:35;;;;;;;12.90;8.77;;;2.00;99.90;;;1.82;65.26;100796.06;5041935;28;20243;-69
2023/01/26 11:16:14;;;;;;;14.27;9.40;;;2.00;99.90;;;1.85;66.12;100801.25;5040083;28;20636;-70